x

8461490 - New London, Ct (nlnc3) Weather Station

6:54am - Fri 1st Jul 2016 All times are EDT. -4 hours from GMT.

  • Wind
    3mph, 6mph gusts
  • Sea Temp 66°f
  • 空気 Temp 68°f
  • Sea Pressure 1017mb
  • 8461490 - New London, Ct
  • 8461490 - New London, Ct

More Historic Weather Station data

Upgrade to MSW Pro to gain access to the past 30 days of data for over 8000 Wavebouys and Weather Stations around the globe.

Join Pro

Comparision Forecast

View Surf forecast
   
Fri 07/01 6:54am 3 6 mph 1017mb 66f 68f
6:48am 3 6 mph 1017mb 66f 69f
6:42am 3 7 mph 1017mb 66f 68f
6:36am 6 8 mph 1017.1mb 66f 68f
6:30am 5 6 mph 1017.1mb 66f 68f
6:24am 1 2 mph 1017mb 66f 68f
6:18am 1 2 mph 1017mb 67f 68f
6:12am 1 2 mph 1016.9mb 67f 67f
6:06am  -  2 mph 1016.9mb 67f 67f
6:00am 2
mph
1016.9mb 67f 66f
5:54am 1 2 mph 1016.9mb 67f 66f
5:48am 1 2 mph 1016.8mb 67f 65f
5:42am  -  1 mph 1016.8mb 67f 65f
5:36am 2
mph
1016.8mb 67f 65f
5:30am 2
mph
1016.8mb 66f 65f
5:24am 1 2 mph 1016.9mb 66f 65f
5:18am  -  1 mph 1016.8mb 67f 65f
5:12am  -  1 mph 1016.8mb 67f 65f
5:06am 1 2 mph 1016.7mb 67f 65f
5:00am 1 2 mph 1016.7mb 67f 65f
4:54am  -  1 mph 1016.7mb 67f 65f
4:48am  -  1 mph 1016.8mb 68f 65f
4:42am 1 2 mph 1016.7mb 67f 66f
4:36am 1
mph
1016.7mb 67f 66f
4:30am  -  1 mph 1016.7mb 66f 66f
4:24am  -  1 mph 1016.7mb 65f 66f
4:18am  -  1 mph 1016.7mb 65f 66f
4:12am  -  1 mph 1016.7mb 65f 66f
4:06am 1 2 mph 1016.7mb 65f 66f
4:00am 1 2 mph 1016.7mb 65f 67f
3:54am  -  2 mph 1016.7mb 68f 67f
3:48am 2 3 mph 1016.7mb 67f 67f
3:42am 2 5 mph 1016.7mb 67f 67f
3:36am 2 3 mph 1016.8mb 67f 67f
3:30am 3 5 mph 1016.8mb 66f 67f
3:24am 2 3 mph 1016.7mb 66f 67f
3:18am 1 2 mph 1016.7mb 65f 67f
3:12am  -  1 mph 1016.6mb 64f 67f
3:06am  -  1 mph 1016.6mb 65f 67f
3:00am  -  2 mph 1016.7mb 66f 67f
2:54am 2 3 mph 1016.7mb 68f 67f
2:48am 2 3 mph 1016.8mb 69f 68f
2:42am 1 2 mph 1016.9mb 70f 68f
2:36am 1 2 mph 1016.9mb 69f 68f
2:30am 1 3 mph 1017mb 70f 68f
2:24am 2 3 mph 1017mb 70f 68f
2:18am 3
mph
1017.1mb 70f 68f
2:12am 3
mph
1017.1mb 70f 69f
2:06am 2 3 mph 1017mb 70f 69f
2:00am 2 3 mph 1017mb 70f 69f
1:54am 3
mph
1017mb 70f 69f
1:48am 2
mph
1017mb 70f 69f
1:42am 1 2 mph 1017mb 70f 69f
1:36am 1 3 mph 1016.9mb 70f 69f
1:30am 2 3 mph 1017mb 69f 69f
1:24am  -  1 mph 1016.9mb 69f 69f
1:18am  -  1 mph 1016.9mb 69f 69f
1:12am  -  mph 1016.9mb 69f 69f
1:06am  -  1 mph 1016.9mb 70f 69f
1:00am  -  mph 1016.9mb 69f 69f
12:54am  -  mph 1016.8mb 69f 69f
12:48am  -  1 mph 1016.8mb 69f 69f
12:42am  -  1 mph 1016.8mb 69f 69f
12:36am  -  1 mph 1016.9mb 69f 69f
12:30am  -  1 mph 1016.8mb 69f 69f
12:24am 1 2 mph 1016.8mb 69f 69f
12:18am 2
mph
1016.8mb 69f 70f
12:12am 2
mph
1016.9mb 69f 70f
12:06am 1 2 mph 1016.9mb 69f 70f
12:00am  -  2 mph 1017mb 69f 70f
Thu 06/30 11:54pm 1 3 mph 1017.1mb 69f 70f
11:48pm  -  mph 1017.2mb 68f 71f
11:42pm  -  mph 1017.3mb 68f 71f
11:36pm  -  mph 1017.3mb 68f 71f
11:30pm 2 3 mph 1017.2mb 68f 71f
11:24pm 2 3 mph 1017.2mb 68f 71f
11:18pm  -  mph 1017.2mb 68f -
11:12pm  -  mph 1017.2mb 68f -
11:06pm  -  mph 1017.2mb 68f -
11:00pm  -  mph - 68f 71f
10:54pm  -  mph - 67f 71f
10:48pm  -  mph - 66f -
10:42pm  -  mph - 67f -
10:36pm  -  mph - 67f -
10:30pm  -  mph - 67f -
10:24pm  -  mph - 68f -
10:18pm  -  mph - 68f -
10:12pm  -  mph - 69f -
10:06pm  -  mph - 69f -
10:00pm  -  mph - 69f -
9:54pm  -  mph - 69f -
9:48pm  -  mph - 69f -
9:42pm  -  mph - 68f -
9:36pm  -  mph - 68f -
9:30pm  -  mph - 68f -
9:24pm  -  mph - 68f -
9:18pm  -  mph 1016.8mb - -
9:12pm  -  mph 1016.7mb - -
9:06pm  -  mph 1016.7mb - -
9:00pm  -  mph 1016.6mb - -
8:30pm  -  mph 1016.3mb 68f -
8:24pm  -  mph 1016.3mb 67f -
8:18pm  -  mph 1016.3mb 66f -
8:12pm  -  mph 1016.3mb 65f -
8:06pm  -  mph 1016.3mb 64f -
8:00pm  -  mph - 64f -
7:54pm  -  mph - 64f -
7:48pm  -  mph - 64f -
7:42pm  -  mph - 65f -
7:36pm  -  mph - 65f -
7:00pm  -  mph 1015.9mb - -
6:54pm  -  mph 1015.8mb - -
6:48pm  -  mph 1015.8mb - -
6:42pm  -  mph 1015.7mb - -
6:36pm  -  mph 1015.6mb - -
6:30pm  -  mph 1015.6mb - -
6:24pm  -  mph 1015.5mb - -
6:18pm  -  mph 1015.4mb 65f -
6:12pm  -  mph 1015.4mb 66f -
6:06pm  -  mph 1015.4mb 66f -
6:00pm  -  mph - 65f -
5:54pm  -  mph - 65f -
5:48pm  -  mph - 65f -
5:42pm  -  mph - 66f -
5:36pm  -  mph - 66f -
5:30pm 9 14 mph 1015.1mb 66f 81f
5:24pm 8 13 mph 1015.1mb 65f 81f
5:18pm 9 15 mph 1015.2mb 65f 81f
5:12pm 9 14 mph 1015.3mb 65f 81f
5:06pm 10 15 mph 1015.3mb 65f 80f
5:00pm 10 17 mph 1015.3mb 65f 80f
4:54pm 10 16 mph 1015.3mb 65f 81f
4:48pm 11 15 mph 1015.4mb 65f 80f
4:42pm 8 15 mph 1015.3mb 64f 81f
4:36pm 11 15 mph 1015.3mb 65f 81f
4:30pm 9 14 mph 1015.3mb 65f 82f
4:24pm 11 16 mph 1015.4mb 70f 80f
4:18pm 11 17 mph 1015.4mb 69f 80f
4:12pm 10 15 mph 1015.4mb 67f 80f
4:06pm 8 16 mph 1015.4mb 66f 81f
4:00pm 13 17 mph 1015.4mb 66f 80f
3:54pm 10 14 mph 1015.4mb 64f 82f
3:48pm 10 16 mph 1015.5mb 65f 80f
3:42pm 9 16 mph 1015.5mb 65f 81f
3:36pm 10 15 mph 1015.5mb 65f 80f
3:30pm 7 16 mph 1015.5mb 64f 82f
3:24pm 11 17 mph 1015.4mb 64f 81f
3:18pm 13 16 mph 1015.5mb 64f -
3:12pm 10 16 mph 1015.5mb 64f -
3:06pm 11 15 mph 1015.5mb 64f -
3:00pm 9 20 mph 1015.5mb 64f 80f
2:54pm 9 15 mph 1015.5mb 65f 82f
2:48pm 10 14 mph 1015.4mb 66f 80f
2:42pm 14 17 mph 1015.4mb 66f 80f
2:36pm 11 15 mph 1015.4mb 65f 80f
2:30pm 13 16 mph 1015.4mb 65f 80f
2:24pm 13 16 mph 1015.4mb 66f 80f
2:18pm 13 16 mph 1015.4mb 67f 80f
2:12pm 11 15 mph 1015.4mb 67f 79f
2:06pm 11 15 mph 1015.4mb 66f 80f
2:00pm 13 16 mph 1015.3mb 66f 79f
1:54pm 10 14 mph 1015.4mb 67f 80f
1:48pm 8 11 mph 1015.3mb 68f 80f
1:42pm 7 14 mph 1015.2mb 67f 80f
1:36pm 10 14 mph 1015.3mb 68f 80f
1:30pm 10 13 mph 1015.3mb 68f 80f
1:24pm 9 14 mph 1015.4mb 68f 79f
1:18pm 10 14 mph 1015.5mb 68f 79f
1:12pm 8 15 mph 1015.5mb 68f 80f
1:06pm 9 14 mph 1015.4mb 69f 80f
1:00pm 8 13 mph 1015.5mb 69f 80f
12:54pm 9 13 mph 1015.6mb 69f 80f
12:48pm 8 10 mph 1015.5mb 69f 80f
12:42pm 10 14 mph 1015.6mb 69f 79f
12:36pm 10 14 mph 1015.7mb 69f 78f
12:30pm 9 14 mph 1015.7mb 68f 78f
12:24pm 7 13 mph 1015.6mb 69f 77f
12:18pm 10 13 mph 1015.6mb 69f 76f
12:12pm 9 10 mph 1015.6mb 69f 77f
12:06pm 7 11 mph 1015.6mb 68f 78f
12:00pm 9 11 mph 1015.6mb 68f 79f
11:24am 3 5 mph 1015.5mb 68f 76f
11:18am 2 5 mph 1015.5mb 67f 77f
11:12am 2 6 mph 1015.4mb 68f 78f
11:06am 2 6 mph 1015.3mb 67f 78f
11:00am 2 6 mph 1015.3mb 68f 78f
10:54am 5 6 mph 1015.4mb 68f 78f
10:48am 3 6 mph 1015.3mb 67f 78f
10:42am 3 7 mph 1015.3mb 67f 78f
10:36am 3 7 mph 1015.3mb 67f 78f
10:30am 5 7 mph 1015.3mb 67f 77f
10:24am 3 6 mph 1015.3mb 67f 77f
10:18am 1 6 mph 1015.3mb 67f 78f
10:12am 2 6 mph 1015.3mb 67f 77f
10:06am 5 7 mph 1015.3mb 66f 76f
10:00am 5 8 mph 1015.3mb 66f 76f
9:54am 6 8 mph 1015.2mb 66f 76f
9:48am 6 10 mph 1015.2mb 65f 76f
9:42am 6 9 mph 1015.3mb 65f 76f
9:36am 3 8 mph 1015.3mb 65f 76f
9:30am 6 9 mph 1015.3mb - 75f
9:24am 5 9 mph 1015.3mb - 75f
9:18am 6 8 mph 1015.3mb 66f 74f
9:12am 7 9 mph 1015.3mb 65f 74f
9:06am 6 10 mph 1015.3mb 66f 74f
9:00am 6 10 mph 1015.3mb 66f 73f
8:54am 6 10 mph 1015.3mb 65f 73f
8:48am 6 9 mph 1015.3mb 65f 73f
8:42am 6 8 mph 1015.3mb 65f 73f
8:36am 5 8 mph 1015.3mb 65f 74f
8:30am 5 7 mph 1015.4mb 65f 73f
8:24am 7 9 mph 1015.4mb 65f 73f
8:18am 6 9 mph 1015.5mb 65f 73f
8:12am 5 7 mph 1015.4mb 65f 73f
8:06am 5 8 mph 1015.3mb 64f 72f
8:00am 3 6 mph 1015.3mb 64f 73f
7:54am 3 7 mph 1015.3mb 64f 73f
7:48am 3 6 mph 1015.2mb 64f 72f
7:42am 3 6 mph 1015.2mb 64f 72f
7:36am 2 6 mph 1015.1mb 64f 72f
7:30am 2 5 mph 1015.1mb 64f 72f
7:24am 1 3 mph 1015mb 64f 72f
7:18am 2 5 mph 1014.9mb 65f 71f
7:12am 2 6 mph 1014.8mb 65f 71f
7:06am 2 6 mph 1014.8mb 65f 70f
7:00am 3 6 mph 1014.7mb 65f 70f
6:54am 3 6 mph 1014.6mb 65f 70f
6:48am 3 5 mph 1014.6mb 65f 70f
6:42am 2 5 mph 1014.5mb 65f 70f
6:36am 2 5 mph 1014.4mb 65f 69f
6:30am 3 6 mph 1014.4mb 65f 69f
6:24am 3 5 mph 1014.4mb 65f 69f
6:18am 2 6 mph 1014.3mb 65f 68f
6:12am 3 6 mph 1014.2mb 65f 68f
6:06am 5 6 mph 1014.3mb 66f 67f
6:00am 2 3 mph 1014.2mb 66f 67f
5:54am 1 3 mph 1014.1mb 65f 66f
5:48am 3
mph
1014.1mb 65f 65f
5:42am 2
mph
1014.1mb 65f 65f
5:36am 1 3 mph 1014mb 65f 65f
5:30am  -  2 mph 1013.9mb 65f 65f
5:24am  -  2 mph 1013.8mb 65f 65f
5:18am  -  3 mph 1013.8mb 65f 65f
5:12am 1 3 mph 1013.7mb 66f 66f
5:06am 1 3 mph 1013.6mb 66f 66f
5:00am 2 3 mph 1013.6mb 66f 65f
4:54am 2
mph
1013.5mb 66f 65f
4:48am 1 2 mph 1013.5mb 67f 66f
4:42am  -  1 mph 1013.4mb 67f 66f
4:36am  -  2 mph 1013.3mb 67f 66f
4:30am  -  1 mph 1013.2mb 67f 66f
4:24am 1 2 mph 1013.2mb 67f 66f
4:18am 1 2 mph 1013.2mb 67f 66f
4:12am  -  2 mph 1013.2mb 67f 66f
4:06am 1 2 mph 1013.1mb 67f 66f
4:00am  -  1 mph 1013.1mb 66f 66f
3:54am 1 2 mph 1013mb 65f 67f
3:48am 2
mph
1012.9mb 66f 67f
3:42am  -  1 mph 1012.9mb 65f 67f
3:36am 2 3 mph 1012.8mb 65f 67f
3:30am  -  3 mph 1012.7mb 65f 67f
3:24am 2 3 mph 1012.6mb 65f 67f
3:18am  -  2 mph 1012.6mb 65f 67f
3:12am 1 2 mph 1012.6mb 65f 67f
3:06am 1 2 mph 1012.5mb 65f 67f
3:00am 2 5 mph 1012.5mb 65f 68f
2:54am 2 6 mph 1012.5mb 66f 68f
2:48am 1 5 mph 1012.4mb 67f -
2:42am 2 5 mph 1012.4mb 67f -
2:36am 2 6 mph 1012.4mb 67f -
2:30am 5 6 mph 1012.5mb 67f 68f
2:24am 3 5 mph 1012.5mb 66f 68f
2:18am 3 6 mph - 67f 68f
2:12am 3 6 mph - 69f 68f
2:06am 2 3 mph - 69f 68f
2:00am 3 5 mph 1012.5mb 69f 68f
1:54am 2 5 mph 1012.6mb 69f 68f
1:48am 2 5 mph 1012.6mb - -
1:42am 2 3 mph 1012.6mb - -
1:36am 2 3 mph 1012.6mb - -
1:30am 1 3 mph 1012.6mb 69f 68f
1:24am 1 5 mph 1012.6mb 69f 68f
1:18am 2 5 mph 1012.5mb 69f 68f
1:12am 2 5 mph 1012.5mb 69f 68f
1:06am 2 5 mph 1012.5mb 69f 68f
1:00am 3 6 mph 1012.4mb 69f 68f
12:54am 3 6 mph 1012.4mb 69f 68f
12:48am 3 5 mph 1012.5mb 69f 68f
12:42am 2 3 mph 1012.5mb 69f 69f
12:36am 3 5 mph 1012.6mb 69f 69f
12:30am 1 2 mph 1012.6mb 69f 69f
12:24am 1 2 mph 1012.6mb 68f 69f
12:18am 2 3 mph 1012.6mb 68f 69f
12:12am 2 3 mph 1012.5mb 68f 69f
12:06am 2 3 mph 1012.5mb 68f 69f
12:00am 2 3 mph 1012.5mb 68f 70f
Wed 06/29 11:54pm 1 3 mph 1012.5mb 68f 70f
11:48pm 1 3 mph 1012.4mb 68f 70f
11:42pm 1 2 mph 1012.4mb 69f 70f
11:36pm 1 3 mph 1012.4mb 69f 71f
11:30pm 2 3 mph 1012.4mb 68f 71f
11:24pm 1 2 mph 1012.4mb 69f 71f
11:18pm  -  1 mph 1012.4mb - -
11:12pm 1 5 mph 1012.3mb - -
11:06pm 1 7 mph 1012.3mb - -
11:00pm  -  mph 1012.3mb 67f -
10:54pm  -  mph 1012.3mb 67f -
10:48pm  -  mph - 67f -
10:42pm  -  mph - 66f -
10:36pm  -  mph - 66f -
10:30pm  -  mph - 66f -
10:24pm  -  mph - 66f -
10:18pm  -  mph 1012.3mb - -
10:12pm  -  mph 1012.3mb - -
10:06pm  -  mph 1012.2mb - -
10:00pm  -  mph - 66f -
9:54pm  -  mph - 65f -
9:48pm 3
mph
- 66f -
9:42pm 3
mph
- 66f -
9:36pm 2
mph
- 67f -
9:30pm  -  mph 1011.9mb 67f -
9:24pm  -  mph 1011.9mb 66f -
9:18pm  -  mph 1011.8mb 67f -
9:12pm  -  mph 1011.7mb 68f -
9:06pm  -  mph 1011.6mb 68f -
9:00pm  -  mph - 69f -
8:54pm  -  mph - 68f -
8:48pm  -  mph - 68f 71f
8:42pm  -  mph - 68f 71f
8:36pm  -  mph - 67f 71f
8:30pm  -  mph - 67f 71f
8:24pm  -  mph - 67f 71f
8:18pm  -  mph 1011.2mb 67f 72f
8:12pm  -  mph 1011.2mb 67f 72f
8:06pm  -  mph 1011.2mb 67f 72f
8:00pm  -  mph - 67f 72f
7:54pm  -  mph - 67f 72f
7:48pm  -  mph - 67f 72f
7:42pm  -  mph - 67f 72f
7:36pm  -  mph - 67f 72f
7:30pm  -  mph 1011.2mb 67f -
7:24pm  -  mph 1011.2mb 66f -
7:18pm  -  mph 1011.2mb 66f -
7:12pm  -  mph 1011.1mb 65f -
7:06pm  -  mph 1011.1mb 65f -
7:00pm  -  mph 1011.1mb 65f -
6:54pm  -  mph 1011mb 65f -
6:48pm  -  mph 1010.9mb 65f -
6:42pm  -  mph 1010.9mb 65f -
6:36pm  -  mph 1010.8mb 65f -
6:30pm  -  mph - 65f -
6:24pm  -  mph - 65f -
6:18pm 7 9 mph - - -
6:12pm 8 9 mph - - -
6:06pm 9 10 mph - - -
6:00pm 10 11 mph - - -
5:54pm 9 10 mph - - -
5:48pm  -  mph - 65f -
5:42pm  -  mph - 65f -
5:36pm  -  mph - 65f -
5:30pm 10 11 mph 1010.8mb 65f 73f
5:24pm 8 9 mph 1010.9mb 64f 72f
5:18pm 9 10 mph 1010.9mb 65f 71f
5:12pm 8 10 mph 1011mb 64f 71f
5:06pm 9 13 mph 1010.9mb 64f 70f
5:00pm 10 14 mph 1011mb 64f 70f
4:54pm 11 14 mph 1011mb 65f 70f
4:48pm 10 13 mph 1011mb 64f 70f
4:42pm 11 14 mph 1011mb 64f 70f
4:36pm 11 14 mph 1011mb 64f 70f
4:30pm 11 13 mph 1011mb 64f 70f
4:24pm 11 14 mph 1011.1mb 64f 71f
4:18pm 13 15 mph 1011.1mb 64f 71f
4:12pm 13 15 mph 1011mb 64f 71f
4:06pm 9 11 mph 1011mb 64f 71f
4:00pm 8 13 mph 1011.1mb 64f 71f
3:54pm 10 13 mph 1011.1mb 65f 70f
3:48pm 10 13 mph 1011mb 64f 71f
3:42pm 11 14 mph 1011.1mb 64f 71f
3:36pm 10 13 mph 1011mb 65f 71f
3:30pm 9 11 mph 1011mb 67f 72f
3:24pm 9 13 mph 1011mb 67f 72f
3:18pm 10 13 mph 1011mb 68f 72f
3:12pm 10 13 mph 1011.1mb 66f 73f
3:06pm 10 13 mph 1011mb 67f 73f
3:00pm 10 13 mph 1010.9mb 66f 73f
2:54pm 10 11 mph 1010.9mb 65f 72f
2:48pm 8 11 mph 1010.9mb 65f 73f
2:42pm 7 10 mph 1010.8mb 66f 72f
2:36pm 8 11 mph 1010.8mb 64f 72f
2:30pm 10 11 mph 1010.9mb 64f 72f
2:24pm 9 10 mph 1010.9mb 63f 71f
2:18pm 9 10 mph 1010.9mb 63f 72f
2:12pm 10 13 mph 1011mb 64f 72f
2:06pm 8 13 mph 1011mb 66f 72f
2:00pm 10 13 mph 1010.9mb 69f 72f
1:54pm 10 13 mph 1011.1mb 69f 72f
1:48pm 8 11 mph 1011.1mb 68f 72f
1:42pm 8 11 mph 1011.1mb 67f 72f
1:36pm 9 13 mph 1011mb 67f 72f
1:30pm 9 13 mph 1011.1mb 66f 72f
1:24pm 8 11 mph 1011.1mb 66f 71f
1:18pm 8 11 mph 1011.1mb 66f 71f
1:12pm 10 13 mph 1011.1mb 66f 71f
1:06pm 10 13 mph 1011mb 65f 71f
1:00pm 9 13 mph 1011.1mb 65f 71f
12:54pm 9 11 mph 1011.1mb 65f 71f
12:48pm 10 13 mph 1011.1mb 66f 71f
12:42pm 11 13 mph 1011.1mb 68f 70f
12:36pm 10 11 mph 1011.1mb 69f 71f
12:30pm 10 11 mph 1011.2mb 68f 71f
12:24pm 9 13 mph 1011.3mb 68f 71f
12:18pm 11 13 mph 1011.2mb 67f 70f
12:12pm 11 13 mph 1011.3mb 68f 70f
12:06pm 10 11 mph 1011.4mb 68f 70f
12:00pm 10 13 mph 1011.5mb 68f 71f
11:54am 9 10 mph 1011.5mb 68f 71f
11:48am 9
mph
1011.4mb 67f 71f
11:42am 9 10 mph 1011.5mb 67f 71f
11:36am 9 10 mph 1011.6mb 67f 70f
11:30am 9 11 mph 1011.6mb 67f 70f
11:24am 10 11 mph 1011.5mb 67f 70f
11:18am 10 13 mph 1011.5mb 67f 70f
11:12am 10 13 mph 1011.5mb 67f 70f
11:06am 8 11 mph 1011.6mb 67f 70f
11:00am 8 10 mph 1011.5mb 67f 70f
10:54am 7 9 mph 1011.5mb 67f 71f
10:48am 7 9 mph 1011.5mb 67f 71f
10:42am 7
mph
1011.5mb 66f 72f
10:36am 5
mph
1011.5mb 67f 73f
10:30am 2 3 mph 1011.6mb 67f 72f
10:24am 2
mph
1011.6mb 66f 72f
10:18am 2 3 mph 1011.6mb 66f 72f
10:12am 2 3 mph 1011.7mb 65f 71f
10:06am 3 5 mph 1011.7mb 65f 70f
10:00am 3 5 mph 1011.6mb 65f 70f
9:54am 3 6 mph 1011.7mb 65f 69f
9:48am 6
mph
1011.7mb 65f 69f
9:42am 5 6 mph 1011.8mb 66f 69f
9:36am 6
mph
1011.9mb 65f 68f
9:30am 6
mph
1011.9mb 65f 68f
9:24am 5 6 mph 1011.9mb 65f 68f
9:18am 5 6 mph 1012mb 65f 68f
9:12am 5 6 mph 1011.9mb 65f 68f
9:06am 5 6 mph 1012mb 65f 68f
9:00am 3 6 mph 1012mb 66f 68f
8:54am 5 6 mph 1012mb 65f 68f
8:48am 5 6 mph 1011.9mb 65f 68f
8:42am 5 6 mph 1011.9mb 65f 67f
8:36am 5 6 mph 1011.9mb 67f 67f
8:30am 3 5 mph 1011.8mb 67f 67f
8:24am 5 7 mph 1011.9mb 66f 67f
8:18am 6 7 mph 1011.8mb 66f 67f
8:12am 3 5 mph 1011.8mb 66f 67f
8:06am 3 6 mph 1011.7mb 66f 67f
8:00am 5 6 mph 1011.9mb 66f 67f
7:54am 3 5 mph 1011.7mb 66f 67f
7:48am 3 5 mph 1011.6mb 66f 67f
7:42am 5 6 mph 1011.6mb 66f 67f
7:36am 3 5 mph 1011.6mb 66f 67f
7:30am 3 5 mph 1011.6mb 66f 67f
7:24am 2 5 mph 1011.6mb 66f 67f
7:18am 3 5 mph 1011.5mb 66f 67f
7:12am 3 5 mph 1011.5mb 66f 67f
7:06am 3 5 mph 1011.4mb 66f 67f
7:00am 2 3 mph 1011.4mb 65f 67f
6:54am 2 5 mph 1011.4mb 65f 67f
6:48am 3 6 mph 1011.5mb 65f 67f
6:42am 3 6 mph 1011.5mb 65f 67f
6:36am 3 5 mph 1011.4mb 66f 67f
6:30am 5 6 mph 1011.5mb 66f 67f
6:24am 6 7 mph 1011.4mb 66f 67f
6:18am 5 6 mph 1011.5mb 66f 67f
6:12am 5 7 mph 1011.5mb 66f 67f
6:06am 6 8 mph 1011.5mb 65f 67f
6:00am 6 7 mph 1011.5mb 65f 67f
5:54am 3 6 mph 1011.5mb 65f 67f
5:48am 5 7 mph 1011.5mb 66f 67f
5:42am 6 7 mph 1011.5mb 65f 67f
5:36am 6 7 mph 1011.5mb 65f 67f
5:30am 5 6 mph 1011.4mb 65f 67f
5:24am 6 7 mph 1011.5mb 65f 67f
5:18am 6 7 mph 1011.4mb 65f 67f
5:12am 5 7 mph 1011.4mb 66f 67f
5:06am 6 8 mph 1011.4mb 66f 67f
5:00am 5 6 mph 1011.4mb 66f 67f
4:54am 5 6 mph 1011.4mb 66f 67f
4:48am 3 6 mph 1011.4mb 66f 67f
4:42am 5 6 mph 1011.3mb 66f 67f
4:36am 6 7 mph 1011.2mb 66f 67f
4:30am 5 6 mph 1011.2mb 66f 67f
4:24am 5 6 mph 1011.4mb 66f 67f
4:18am 3 6 mph 1011.4mb 66f 67f
4:12am 6 9 mph 1011.5mb 66f 67f
4:06am 8 9 mph 1011.5mb 66f 67f
4:00am 8 9 mph 1011.5mb 65f 67f
3:54am 7 8 mph 1011.6mb 65f 67f
3:48am 7 8 mph 1011.7mb 66f 67f
3:42am 7
mph
1011.7mb 66f 67f
3:36am 7 8 mph 1011.7mb 65f 67f
3:30am 6 8 mph 1011.6mb 65f 67f
3:24am 7 9 mph 1011.6mb 65f 67f
3:18am 8
mph
1011.6mb 65f 67f
3:12am 7 8 mph 1011.7mb 65f 67f
3:06am 5 8 mph 1011.6mb 66f 68f
3:00am 7 8 mph 1011.6mb 66f 68f
2:54am 6 8 mph 1011.6mb 67f 68f
2:48am 6 8 mph 1011.6mb 67f 67f
2:42am 6 7 mph 1011.7mb 67f 66f
2:36am 7 8 mph 1011.7mb 67f 66f
2:30am 7 9 mph 1011.8mb 67f 66f
2:24am 7 8 mph 1011.8mb 67f 66f
2:18am 8 10 mph 1011.9mb 67f 66f
2:12am 7 8 mph 1011.8mb 67f 66f
2:06am 6 7 mph 1011.9mb 67f 66f
2:00am 5 7 mph 1011.8mb 67f 66f
1:54am 6 9 mph 1011.8mb 67f 66f
1:48am  -  mph 1011.9mb 67f 67f
1:42am  -  mph 1011.9mb 67f 67f
1:36am  -  mph 1012mb 67f 67f
1:30am 6 10 mph 1012mb 66f 67f
1:24am 8 11 mph 1012.1mb 65f 67f
1:18am 9 13 mph 1012.1mb 66f 68f
1:12am 11 14 mph 1012.2mb 66f 68f
1:06am 9 14 mph 1012.2mb 67f 68f
1:00am 9 11 mph 1012.3mb 67f 68f
12:54am 11 14 mph 1012.4mb 68f 68f
12:48am 7 9 mph 1012.3mb 68f 68f
12:42am 7 10 mph 1012.4mb 68f 68f
12:36am 7 9 mph 1012.4mb 68f 68f
12:30am 7 14 mph 1012.4mb 67f 68f
12:24am 10 13 mph 1012.6mb 67f 68f
12:18am 5 8 mph 1012.6mb 67f 68f
12:12am 6 7 mph 1012.6mb 67f 68f
12:06am 7 10 mph 1012.6mb 67f 68f
12:00am 8 13 mph 1012.8mb 67f 68f
Tue 06/28 11:54pm 9 11 mph 1012.7mb 67f 68f
11:48pm  -  mph 1012.8mb 67f 68f
11:42pm  -  mph 1012.8mb 67f 68f
11:36pm  -  mph 1012.7mb 67f 68f
11:30pm 7 8 mph 1012.7mb 67f 68f
11:24pm 6 8 mph 1012.7mb 67f 68f
11:18pm 6 7 mph 1012.7mb 67f 68f
11:12pm 6 7 mph 1012.8mb 67f 68f
11:06pm 7 8 mph 1013mb 67f 68f
11:00pm  -  mph 1013mb 67f -
10:54pm  -  mph 1013.1mb 67f -
10:48pm 6 8 mph - 67f -
10:42pm 7 9 mph - 67f -
10:36pm 6 7 mph - 66f -
10:30pm  -  mph 1013.4mb 66f 68f
10:24pm  -  mph 1013.5mb 66f 68f
10:18pm  -  mph 1013.4mb 67f -
10:12pm  -  mph 1013.5mb 67f -
10:06pm  -  mph 1013.6mb 67f -
10:00pm  -  mph 1013.5mb 66f -
9:54pm  -  mph 1013.5mb 65f -
9:48pm  -  mph 1013.5mb 65f -
9:42pm  -  mph 1013.6mb 65f -
9:36pm  -  mph 1013.6mb 65f -
9:30pm  -  mph 1013.4mb 64f -
9:24pm  -  mph 1013.3mb 65f -
9:18pm  -  mph 1013.2mb 65f 69f
9:12pm  -  mph 1013.1mb 65f 69f
9:06pm  -  mph 1013.3mb 65f 69f
9:00pm  -  mph - 65f 69f
8:54pm  -  mph - 64f 69f
8:48pm  -  mph 1013.6mb 65f -
8:42pm  -  mph 1013.5mb 65f -
8:36pm  -  mph 1013.6mb 65f -
8:30pm  -  mph - 66f -
8:24pm  -  mph - 66f -
8:18pm  -  mph 1013.4mb 66f 69f
8:12pm  -  mph 1013.3mb 67f 69f
8:06pm  -  mph 1013.3mb 66f 70f
8:00pm  -  mph 1013.3mb 66f -
7:54pm  -  mph 1013.5mb 65f -
7:48pm  -  mph - 66f -
7:42pm  -  mph - 66f -
7:36pm  -  mph - 66f -
7:30pm  -  mph - 67f -
7:24pm  -  mph - 67f -
7:18pm  -  mph 1013.8mb 67f -
7:12pm  -  mph 1013.8mb 67f -
7:06pm  -  mph 1013.7mb 67f -
7:00pm  -  mph - 67f -
6:54pm  -  mph - 67f -
6:48pm  -  mph - 66f -
6:42pm  -  mph - 66f -
6:36pm  -  mph - 66f -
6:30pm  -  mph 1013.6mb 66f -
6:24pm  -  mph 1013.5mb 67f -
6:18pm  -  mph - 67f -
6:12pm  -  mph - 66f -
6:06pm  -  mph - 66f -
6:00pm  -  mph 1013.7mb 66f 71f
5:54pm  -  mph 1013.9mb 65f 71f
5:48pm  -  mph - 65f 71f
5:42pm  -  mph - 66f 70f
5:36pm  -  mph - 66f 71f
5:30pm 5 7 mph 1013.8mb 65f 71f
5:24pm 6 7 mph 1013.8mb 64f 70f
5:18pm 6 9 mph 1013.8mb 64f 70f
5:12pm 7 9 mph 1013.8mb 65f 70f
5:06pm 7 10 mph 1013.8mb 65f 70f
5:00pm 7 10 mph 1013.9mb 65f 70f
4:54pm 8 9 mph 1014mb 65f 70f
4:48pm 7 8 mph 1014mb 65f 70f
4:42pm 7 9 mph 1014mb 65f 70f
4:36pm 7 10 mph 1014mb 65f 70f
4:30pm 7 10 mph 1014.1mb 65f 70f
4:24pm 8 11 mph 1014.1mb 65f 70f
4:18pm 9 13 mph 1014.1mb 65f 70f
4:12pm 8 10 mph 1014.2mb 65f 70f
4:06pm 10 11 mph 1014.2mb 65f 70f
4:00pm 9 10 mph 1014.3mb 65f 70f
3:54pm 6 9 mph 1014.3mb 65f 70f
3:48pm 6 9 mph 1014.3mb 65f 70f
3:42pm 9 10 mph 1014.4mb 65f 70f
3:36pm 8 10 mph 1014.5mb 65f 70f
3:30pm 7 9 mph 1014.5mb 64f 71f
3:24pm 6 8 mph 1014.5mb 64f 71f
3:18pm 6 8 mph 1014.5mb 64f 71f
3:12pm 6 9 mph 1014.6mb 64f 71f
3:06pm 5 8 mph 1014.6mb 65f 71f
3:00pm 7 9 mph 1014.6mb 65f 71f
2:54pm 6 7 mph 1014.6mb 65f 71f
2:48pm 5 8 mph 1014.7mb 66f 71f
2:42pm 6 7 mph 1014.8mb 66f 70f
2:36pm 6 7 mph 1014.9mb 66f 71f
2:30pm 7 8 mph 1014.9mb 65f 71f
2:24pm 7 8 mph 1014.9mb 65f 71f
2:18pm 6 8 mph 1014.9mb 65f 70f
2:12pm 6 8 mph 1014.9mb 65f 70f
2:06pm 8 10 mph 1015.1mb 66f 69f
2:00pm 9 10 mph 1015.2mb 65f 70f
1:54pm 9
mph
1015.2mb 64f 69f
1:48pm 8
mph
1015.2mb 65f 69f
1:42pm 7 8 mph 1015.3mb 66f 69f
1:36pm 7 8 mph 1015.3mb 65f 69f
1:30pm 7 8 mph 1015.3mb 63f 69f
1:24pm 7 8 mph 1015.3mb 63f 69f
1:18pm 6 9 mph 1015.3mb 63f 69f
1:12pm 8 9 mph 1015.3mb 65f 69f
1:06pm 8 10 mph 1015.4mb 67f 68f
1:00pm 9
mph
1015.5mb 67f 68f
12:54pm 7 9 mph 1015.6mb 66f 69f
12:48pm 6 7 mph 1015.7mb 66f 69f
12:42pm 6 7 mph 1015.8mb 66f 69f
12:36pm 6 9 mph 1015.8mb 65f 69f
12:30pm 8 11 mph 1015.9mb 65f 68f
12:24pm 8 10 mph 1015.9mb 65f 69f
12:18pm 8 9 mph 1015.9mb 65f 69f
12:12pm 7 8 mph 1015.9mb 65f 69f
12:06pm 6 7 mph 1015.8mb 65f 69f
12:00pm 6 7 mph 1015.9mb 67f 69f
11:54am 7 8 mph 1015.9mb 67f 69f
11:48am 7 8 mph 1016mb 66f 69f
11:42am 7 9 mph 1016.1mb 66f 69f
11:36am 7 8 mph 1016.1mb 67f 69f
11:30am 7 10 mph 1016mb 67f 69f
11:24am 7 8 mph 1016mb 67f 69f
11:18am 6 8 mph 1016mb 68f 70f
11:12am 6 7 mph 1016mb 68f 70f
11:06am 6 7 mph 1016mb 68f 70f
11:00am 6
mph
1016mb 68f 70f
10:54am 5
mph
1016mb 67f 70f
10:48am 3 5 mph 1015.9mb 67f 70f
10:42am 3 5 mph 1016mb 67f 70f
10:36am 2 3 mph 1016mb 67f 70f
10:30am 3
mph
1016.1mb 67f 70f
10:24am 2
mph
1016.1mb 67f 70f
10:18am 2 3 mph 1016.1mb 67f 70f
10:12am 2 6 mph 1016.1mb 67f 70f
10:06am 5 7 mph 1016.1mb 68f 71f
10:00am 6 8 mph 1016.2mb 68f 71f
9:54am 6 9 mph 1016.3mb 67f 71f
9:48am  -  mph 1016.2mb 67f 71f
9:42am  -  mph 1016.3mb 67f 71f
9:36am  -  mph 1016.3mb 67f 71f
9:30am 3 11 mph 1016.3mb 67f 71f
9:24am 6 10 mph 1016.3mb 66f 71f
9:18am 5 7 mph 1016.4mb 67f 70f
9:12am 5 7 mph 1016.4mb 67f 69f
9:06am 6 7 mph 1016.4mb 64f 69f
9:00am 6 7 mph 1016.4mb 64f 69f
8:54am 5 6 mph 1016.4mb 64f 69f
8:48am 6 8 mph 1016.4mb 65f 68f
8:42am 7 9 mph 1016.4mb 66f 68f
8:36am 7 10 mph 1016.4mb 66f 67f
8:30am 8 10 mph 1016.3mb 66f 67f
8:24am 9 11 mph 1016.3mb 66f 67f
8:18am 10 11 mph 1016.3mb 66f 67f
8:12am 10
mph
1016.2mb 67f 68f
8:06am 9 10 mph 1016.2mb 67f 68f
8:00am 8 10 mph 1016.1mb 67f 68f
7:54am 6 8 mph 1016.1mb 67f 69f
7:48am 7 8 mph 1016.1mb 66f 70f
7:42am 6 7 mph 1016.1mb 66f 69f
7:36am 6 7 mph 1016mb 66f 69f
7:30am 6 7 mph 1016mb 67f 68f
7:24am 6 7 mph 1016mb 68f 68f
7:18am 6 7 mph 1016mb 67f 67f
7:12am 7
mph
1015.9mb 67f 67f
7:06am 6 7 mph 1015.9mb 67f 67f
7:00am 7 8 mph 1015.9mb 67f -
6:54am 6 8 mph 1015.9mb 68f -
6:48am 7 8 mph 1015.9mb 67f -
6:42am 7 8 mph 1015.9mb 68f -
6:36am 7 8 mph 1015.9mb 68f -
6:30am 7 8 mph 1015.8mb 68f 67f
6:24am 7 8 mph 1015.8mb 68f 67f
6:18am 6 8 mph 1015.7mb 68f 67f
6:12am 7 8 mph 1015.7mb 68f 67f
6:06am 7 8 mph 1015.6mb 67f 67f
6:00am 7 8 mph 1015.6mb 67f 67f
5:54am 7
mph
1015.6mb 67f 67f
5:48am 6 7 mph 1015.6mb 67f 67f
5:42am 6 7 mph 1015.6mb 67f 67f
5:36am 6
mph
1015.6mb 67f 67f
5:30am 5 6 mph 1015.6mb 67f 67f
5:24am 6
mph
1015.6mb 66f 67f
5:18am 6 8 mph 1015.6mb 66f 67f
5:12am 8 9 mph 1015.7mb 67f 67f
5:06am 8 9 mph 1015.7mb 67f 67f
5:00am 8
mph
1015.6mb 66f 67f
4:54am 7 8 mph 1015.6mb 66f 67f
4:48am 6
mph
1015.7mb 66f 67f
4:42am 5 6 mph 1015.6mb 66f 67f
4:36am 6 7 mph 1015.6mb 66f 67f
4:30am 5 6 mph 1015.5mb 67f 67f
4:24am 5 6 mph 1015.5mb 67f 67f
4:18am 5 6 mph 1015.5mb 66f 67f
4:12am 3 6 mph 1015.5mb 67f 67f
4:06am 3 5 mph 1015.5mb 67f 67f
4:00am 3 5 mph 1015.6mb 66f 67f
3:54am 3 6 mph 1015.6mb 66f 67f
3:48am 6 7 mph 1015.6mb 66f 66f
3:42am 6 7 mph 1015.6mb 66f 66f
3:36am 6 7 mph 1015.7mb 66f 66f
3:30am 6 7 mph 1015.8mb 66f 66f
3:24am 6 7 mph 1015.8mb 66f 66f
3:18am 6 7 mph 1015.8mb 66f 66f
3:12am 6 8 mph 1015.9mb 65f 66f
3:06am 8 9 mph 1015.9mb 65f 66f
3:00am 7 9 mph 1015.9mb 66f 66f
2:54am 7 8 mph 1015.9mb 65f 66f
2:48am 7 10 mph 1016mb - -
2:42am 7 9 mph 1016.1mb - -
2:36am 7 8 mph 1016.2mb - -
2:30am 7 9 mph 1016.3mb 65f 67f
2:24am 8 9 mph 1016.4mb 65f 67f
2:18am 8 9 mph 1016.4mb 66f 67f
2:12am 7 9 mph 1016.4mb 66f 67f
2:06am 7 9 mph 1016.5mb 66f 67f
2:00am 8 10 mph 1016.5mb 66f 67f
1:54am 6 8 mph 1016.5mb 65f 67f
1:48am 6
mph
- - -
1:42am 6 7 mph - - -
1:36am 6 7 mph - - -
1:30am 6 8 mph 1016.7mb 65f 67f
1:24am 8 9 mph 1016.8mb 66f 68f
1:18am 7 9 mph 1016.8mb 68f 68f
1:12am 8 9 mph 1016.7mb 68f 68f
1:06am 7 9 mph 1016.7mb 68f 68f
1:00am 9 11 mph 1016.8mb 68f 68f
12:54am 9 11 mph 1016.8mb 67f 68f
12:48am 9 10 mph 1016.9mb 66f 68f
12:42am 8 10 mph 1016.9mb 65f 69f
12:36am 8 9 mph 1016.9mb 64f 69f
12:30am 7 9 mph 1017mb 64f 69f
12:24am 8 9 mph 1017.1mb 64f 69f
12:18am 8 10 mph 1017.1mb 64f 69f
12:12am 7 9 mph 1017.1mb 65f 69f
12:06am 7
mph
1017.1mb 65f 69f
12:00am 6 7 mph 1017.2mb 66f 69f
Mon 06/27 11:54pm 6 7 mph 1017.3mb 68f 69f
11:48pm  -  mph 1017.3mb 68f 69f
11:42pm  -  mph 1017.3mb 68f 69f
11:36pm  -  mph 1017.3mb 68f 69f
11:30pm 7 8 mph 1017.3mb 68f 69f
11:24pm 7 9 mph 1017.3mb 68f 69f
11:18pm 7 9 mph 1017.3mb 68f 69f
11:12pm 7 8 mph 1017.3mb 68f 69f
11:06pm 7 8 mph 1017.3mb 68f 69f
11:00pm  -  mph - 67f 69f
10:54pm  -  mph - 68f 69f
10:48pm  -  mph 1017.4mb 68f -
10:42pm  -  mph 1017.4mb 68f -
10:36pm  -  mph 1017.5mb 67f -
10:30pm  -  mph 1017.5mb 67f -
10:24pm  -  mph 1017.4mb 68f -
10:18pm  -  mph 1017.4mb - 70f
10:12pm  -  mph 1017.5mb - 70f
10:06pm  -  mph 1017.5mb - 70f
10:00pm  -  mph - 68f -
9:54pm  -  mph - 68f -
9:48pm  -  mph 1017.5mb - -
9:42pm  -  mph 1017.5mb - -
9:36pm  -  mph 1017.5mb - -
9:30pm  -  mph 1017.5mb 67f -
9:24pm  -  mph 1017.4mb 67f -
9:18pm  -  mph 1017.4mb 67f -
9:12pm  -  mph 1017.4mb 66f -
9:06pm  -  mph 1017.4mb 66f -
9:00pm  -  mph 1017.3mb 66f 68f
8:54pm  -  mph 1017.2mb 67f 68f
8:48pm  -  mph 1017.1mb 66f -
8:42pm  -  mph 1017.1mb 66f -
8:36pm  -  mph 1017.1mb 66f -
8:30pm  -  mph 1017.1mb 67f -
8:24pm  -  mph 1017.1mb 67f -
8:18pm  -  mph 1017.2mb 67f -
8:12pm  -  mph 1017.2mb 65f -
8:06pm  -  mph 1017.2mb 65f -
8:00pm  -  mph 1017.2mb 65f -
7:54pm  -  mph 1017.2mb 65f -
7:48pm  -  mph 1017.2mb - -
7:42pm  -  mph 1017.2mb - -
7:36pm  -  mph 1017.2mb - -
7:30pm  -  mph - 67f -
7:24pm  -  mph - 67f -
7:18pm  -  mph 1017.2mb 67f -
7:12pm  -  mph 1017.2mb 67f -
7:06pm  -  mph 1017.2mb 67f -
7:00pm  -  mph 1017.2mb 66f -
6:54pm  -  mph 1017.2mb 66f -
6:48pm  -  mph 1017.2mb 67f -
6:42pm  -  mph 1017.2mb 67f -
6:36pm  -  mph 1017.2mb 67f -
6:30pm  -  mph 1017.2mb 67f -
6:24pm  -  mph 1017.1mb 67f -
6:18pm  -  mph - 67f 68f
6:12pm  -  mph - 67f 69f
6:06pm  -  mph - 67f 69f
6:00pm  -  mph 1017.3mb 67f -
5:54pm  -  mph 1017.4mb 67f -
5:48pm  -  mph 1017.5mb 67f 68f
5:42pm  -  mph 1017.5mb 67f 69f
5:36pm  -  mph 1017.4mb 67f 69f
5:30pm 9 11 mph 1017.5mb 67f 68f
5:24pm 10 13 mph 1017.5mb 67f 68f
5:18pm 9 11 mph 1017.5mb 67f 68f
5:12pm 9 13 mph 1017.5mb 66f 68f
5:06pm 11 14 mph 1017.6mb 65f 68f
5:00pm 9 14 mph 1017.7mb 65f 68f
4:54pm 10 14 mph 1017.7mb 66f 68f
4:48pm 10 14 mph 1017.8mb 66f 67f
4:42pm 10 13 mph 1017.7mb 65f 68f
4:36pm 11 14 mph 1017.8mb 66f 68f
4:30pm 11 13 mph 1017.8mb 65f 68f
4:24pm 9 13 mph 1017.7mb 65f 68f
4:18pm 10 16 mph 1017.8mb 65f 69f
4:12pm 14 16 mph 1017.8mb 66f 69f
4:06pm 14 16 mph 1017.9mb 66f 71f
4:00pm 13 16 mph 1017.8mb 66f 71f
3:54pm 10 17 mph 1017.8mb 66f 71f
3:48pm 14 17 mph 1017.8mb 66f 71f
3:42pm 11 15 mph 1017.8mb 66f 70f
3:36pm 14 16 mph 1017.8mb 66f 70f
3:30pm 13 16 mph 1017.7mb 65f 69f
3:24pm 14 17 mph 1017.7mb 65f 70f
3:18pm 15 18 mph 1017.7mb 65f 70f
3:12pm 13 15 mph 1017.8mb 65f 70f
3:06pm 10 15 mph 1017.8mb 64f 73f
3:00pm 9 14 mph 1017.8mb 65f 74f
2:54pm 10 17 mph 1018mb 65f 74f
2:48pm  -  mph 1018.1mb 65f 73f
2:42pm  -  mph 1018.1mb 64f 72f
2:36pm  -  mph 1018.1mb 64f 68f
2:30pm 14 17 mph 1018.2mb 65f 68f
2:24pm 15 18 mph 1018.2mb 65f 69f
2:18pm 14 16 mph 1018.2mb 65f 70f
2:12pm 13 14 mph 1018.2mb 65f 72f
2:06pm 10 16 mph 1018.3mb 65f 72f
2:00pm 9 13 mph 1018.4mb 65f 69f
1:54pm 13 15 mph 1018.6mb 65f 68f
1:48pm 13 15 mph 1018.6mb 65f 68f
1:42pm 13 15 mph 1018.6mb 65f 69f
1:36pm 14 17 mph 1018.7mb 66f 68f
1:30pm 15 17 mph 1018.8mb 66f 69f
1:24pm 16 18 mph 1018.9mb 66f 69f
1:18pm 14 17 mph 1018.9mb 66f 70f
1:12pm 14 16 mph 1018.8mb 65f 69f
1:06pm 9 14 mph 1018.9mb 65f 69f
1:00pm 13 15 mph 1019mb 65f 70f
12:54pm 11 14 mph 1019mb 66f 71f
12:48pm 11 14 mph 1019.1mb 65f 70f
12:42pm 10 15 mph 1019.1mb 66f 70f
12:36pm 14 17 mph 1019.1mb 66f 70f
12:30pm 15 17 mph 1019.1mb 65f 71f
12:24pm 11 14 mph 1019.1mb 63f 73f
12:18pm 10 14 mph 1019.1mb 62f 74f
12:12pm 11 16 mph 1019.2mb 63f 74f
12:06pm 13 16 mph 1019.1mb 63f 74f
12:00pm 7 10 mph 1019.1mb 65f 72f
11:54am 9 11 mph 1019.1mb 64f 70f
11:48am 9 13 mph 1019.3mb 64f 70f
11:42am 11 14 mph 1019.2mb 64f 70f